Terminal Aerodrome Forecast
Issued by NWS Blacksburg, VA

Home | Current Version | Previous Version | Text Only | Print | Product List | Glossary On
Versions: 1 2 3 4 5 6 7 8 9 10 11 12 13 14 15 16 17 18 19 20 21 22 23 24 25 26
000
FTUS41 KRNK 191130
TAFROA
TAF
KROA 191130Z 1912/2012 26010G20KT P6SM BKN035
     FM191500 30012G21KT P6SM BKN045
     FM192300 31008KT P6SM SCT250
     FM200400 32004KT P6SM SKC=

USA.gov is the U.S. government's official web portal to all federal, state and local government web resources and services.